createdAt,value
2019-04-26T00:01:16.006Z,0.90
2019-04-26T00:03:44.039Z,1.23
2019-04-26T00:06:11.151Z,1.43
2019-04-26T00:08:39.576Z,1.00
2019-04-26T00:11:11.680Z,0.73
2019-04-26T00:13:39.943Z,0.90
2019-04-26T00:16:12.666Z,1.03
2019-04-26T00:18:39.545Z,0.80
2019-04-26T00:21:05.798Z,1.10
2019-04-26T00:23:31.887Z,1.10
2019-04-26T00:25:58.201Z,1.00
2019-04-26T00:28:24.223Z,1.20
2019-04-26T00:30:50.631Z,1.10
2019-04-26T00:33:17.260Z,1.20
2019-04-26T00:35:47.928Z,1.13
2019-04-26T00:38:11.622Z,0.97
2019-04-26T00:40:38.943Z,1.30
2019-04-26T00:43:05.227Z,1.10
2019-04-26T00:45:32.165Z,1.10
2019-04-26T00:47:58.691Z,0.90
2019-04-26T00:50:24.780Z,1.13
2019-04-26T00:52:50.883Z,1.10
2019-04-26T00:55:17.611Z,1.30
2019-04-26T00:57:43.862Z,1.10
2019-04-26T01:00:11.811Z,1.10
2019-04-26T01:02:40.056Z,0.90
2019-04-26T01:05:06.070Z,1.00
2019-04-26T01:07:32.175Z,0.90
2019-04-26T01:09:58.562Z,1.17
2019-04-26T01:12:29.667Z,1.03
2019-04-26T01:15:01.434Z,0.90
2019-04-26T01:17:27.462Z,0.93
2019-04-26T01:19:57.401Z,1.00
2019-04-26T01:22:29.044Z,1.40
2019-04-26T01:24:55.688Z,0.90
2019-04-26T01:27:25.498Z,0.87
2019-04-26T01:30:07.440Z,1.00
2019-04-26T01:32:40.331Z,1.13
2019-04-26T01:35:04.895Z,0.93
2019-04-26T01:37:33.905Z,1.00
2019-04-26T01:40:04.421Z,0.97
2019-04-26T01:42:38.389Z,0.90
2019-04-26T01:45:09.241Z,0.87
2019-04-26T01:47:35.266Z,1.23
2019-04-26T01:50:01.345Z,1.00
2019-04-26T01:52:36.521Z,0.87
2019-04-26T01:55:04.670Z,1.20
2019-04-26T01:57:32.688Z,0.83
2019-04-26T02:00:06.365Z,1.00
2019-04-26T02:02:43.243Z,1.20
2019-04-26T02:05:11.199Z,1.10
2019-04-26T02:07:40.277Z,1.37
2019-04-26T02:10:10.918Z,1.10
2019-04-26T02:12:36.951Z,1.07
2019-04-26T02:15:04.964Z,1.03
2019-04-26T02:17:31.489Z,1.20
2019-04-26T02:19:57.932Z,1.40
2019-04-26T02:22:25.930Z,0.93
2019-04-26T02:24:52.730Z,0.90
2019-04-26T02:27:26.771Z,0.90
2019-04-26T02:29:52.792Z,1.13
2019-04-26T02:32:18.819Z,1.17
2019-04-26T02:34:45.314Z,1.10
2019-04-26T02:37:11.441Z,0.93
2019-04-26T02:39:38.312Z,1.20
2019-04-26T02:42:07.468Z,0.80
2019-04-26T02:44:37.011Z,1.07
2019-04-26T02:47:32.566Z,0.90
2019-04-26T02:50:03.768Z,0.83
2019-04-26T02:52:40.928Z,0.90
2019-04-26T02:55:10.748Z,1.03
2019-04-26T02:57:40.485Z,1.03
2019-04-26T03:00:10.991Z,1.10
2019-04-26T03:02:39.078Z,1.07
2019-04-26T03:05:06.228Z,1.20
2019-04-26T03:07:51.044Z,1.50
2019-04-26T03:10:17.759Z,1.30
2019-04-26T03:12:43.772Z,1.70
2019-04-26T03:15:30.371Z,1.20
2019-04-26T03:18:20.028Z,1.20
2019-04-26T03:20:49.853Z,1.00
2019-04-26T03:23:53.293Z,1.10
2019-04-26T03:26:18.891Z,1.30
2019-04-26T03:29:06.415Z,1.10
2019-04-26T03:31:46.050Z,1.77
2019-04-26T03:34:16.404Z,1.53
2019-04-26T03:37:20.792Z,1.77
2019-04-26T03:40:11.243Z,1.90
2019-04-26T03:42:53.007Z,1.47
2019-04-26T03:45:45.745Z,1.70
2019-04-26T03:48:15.586Z,1.70
2019-04-26T03:50:54.468Z,1.90
2019-04-26T03:53:25.384Z,2.00
2019-04-26T03:56:01.240Z,2.10
2019-04-26T03:58:56.595Z,1.60
2019-04-26T04:01:24.518Z,2.43
2019-04-26T04:03:55.091Z,2.70
2019-04-26T04:06:26.012Z,2.23
2019-04-26T04:08:58.569Z,2.30
2019-04-26T04:11:45.065Z,2.10
2019-04-26T04:14:15.107Z,2.47
2019-04-26T04:16:49.626Z,2.90
2019-04-26T04:19:57.191Z,2.53
2019-04-26T04:22:23.831Z,2.07
2019-04-26T04:24:59.663Z,2.20
2019-04-26T04:27:32.964Z,2.43
2019-04-26T04:30:11.504Z,2.00
2019-04-26T04:33:08.644Z,4.50
2019-04-26T04:35:41.718Z,3.60
2019-04-26T04:38:32.981Z,2.80
2019-04-26T04:41:16.741Z,2.40
2019-04-26T04:43:53.010Z,1.77
2019-04-26T04:46:49.150Z,2.63
2019-04-26T04:50:00.138Z,2.80
2019-04-26T04:52:30.007Z,3.00
2019-04-26T04:55:08.010Z,3.00
2019-04-26T04:58:08.053Z,7.10
2019-04-26T05:01:09.655Z,4.60
2019-04-26T05:03:45.063Z,3.47
2019-04-26T05:06:29.272Z,4.30
2019-04-26T05:09:06.893Z,4.33
2019-04-26T05:11:36.719Z,3.43
2019-04-26T05:14:12.581Z,3.40
2019-04-26T05:17:01.371Z,3.50
2019-04-26T05:19:42.759Z,4.50
2019-04-26T05:22:38.961Z,4.13
2019-04-26T05:25:30.399Z,3.83
2019-04-26T05:28:07.639Z,3.53
2019-04-26T05:31:06.566Z,3.33
2019-04-26T05:33:46.151Z,2.97
2019-04-26T05:36:32.001Z,3.50
2019-04-26T05:39:06.583Z,3.30
2019-04-26T05:41:41.087Z,2.93
2019-04-26T05:44:42.542Z,2.70
2019-04-26T05:47:26.351Z,5.77
2019-04-26T05:50:11.031Z,3.13
2019-04-26T05:53:20.451Z,3.00
2019-04-26T05:56:21.498Z,3.40
2019-04-26T05:59:17.849Z,2.60
2019-04-26T06:02:04.187Z,3.37
2019-04-26T06:04:51.965Z,3.57
2019-04-26T06:07:52.228Z,3.40
2019-04-26T06:10:32.847Z,4.40
2019-04-26T06:13:15.085Z,4.00
2019-04-26T06:15:55.938Z,4.30
2019-04-26T06:18:37.101Z,5.30
2019-04-26T06:21:09.731Z,4.40
2019-04-26T06:23:55.697Z,7.13
2019-04-26T06:26:33.823Z,3.93
2019-04-26T06:29:06.192Z,3.37
2019-04-26T06:31:47.503Z,3.50
2019-04-26T06:34:22.952Z,4.03
2019-04-26T06:37:04.366Z,3.60
2019-04-26T06:39:34.344Z,3.40
2019-04-26T06:42:25.222Z,3.30
2019-04-26T06:45:11.195Z,3.23
2019-04-26T06:47:54.451Z,3.40
2019-04-26T06:50:47.014Z,3.80
2019-04-26T06:53:34.991Z,3.20
2019-04-26T06:56:09.630Z,4.23
2019-04-26T06:58:57.998Z,4.17
2019-04-26T07:01:36.970Z,3.97
2019-04-26T07:04:15.943Z,4.30
2019-04-26T07:06:51.371Z,3.30
2019-04-26T07:09:18.440Z,3.47
2019-04-26T07:12:08.436Z,3.27
2019-04-26T07:14:49.406Z,3.70
2019-04-26T07:17:34.617Z,4.60
2019-04-26T07:20:23.678Z,5.43
2019-04-26T07:23:08.034Z,5.57
2019-04-26T07:26:13.665Z,5.23
2019-04-26T07:29:01.372Z,7.53
2019-04-26T07:31:41.103Z,6.80
2019-04-26T07:34:15.707Z,5.53
2019-04-26T07:36:54.003Z,5.30
2019-04-26T07:40:07.075Z,4.17
2019-04-26T07:42:50.707Z,4.43
2019-04-26T07:45:31.141Z,3.90
2019-04-26T07:48:20.027Z,3.40
2019-04-26T07:51:15.734Z,2.97
2019-04-26T07:54:20.970Z,3.20
2019-04-26T07:57:03.096Z,2.80
2019-04-26T07:59:46.519Z,2.40
2019-04-26T08:02:30.904Z,2.00
2019-04-26T08:05:09.982Z,2.10
2019-04-26T08:07:44.085Z,2.20
2019-04-26T08:10:15.522Z,2.20
2019-04-26T08:12:41.894Z,2.10
2019-04-26T08:15:35.344Z,2.57
2019-04-26T08:18:13.863Z,2.00
2019-04-26T08:20:48.128Z,2.30
2019-04-26T08:23:37.176Z,2.70
2019-04-26T08:25:46.695Z,2.87
2019-04-26T08:28:14.265Z,2.10
2019-04-26T08:30:44.860Z,2.03
2019-04-26T08:33:14.327Z,2.37
2019-04-26T08:35:40.094Z,1.60
2019-04-26T08:38:12.918Z,1.80
2019-04-26T08:40:34.394Z,1.60
2019-04-26T08:43:15.808Z,1.70
2019-04-26T08:46:03.475Z,2.17
2019-04-26T08:48:32.014Z,1.90
2019-04-26T08:51:16.440Z,1.97
2019-04-26T08:53:46.407Z,2.10
2019-04-26T08:56:20.406Z,2.13
2019-04-26T08:58:48.459Z,2.20
2019-04-26T09:01:19.572Z,2.30
2019-04-26T09:03:50.728Z,2.53
2019-04-26T09:06:22.197Z,4.27
2019-04-26T09:08:48.669Z,2.40
2019-04-26T09:11:24.069Z,1.70
2019-04-26T09:13:45.483Z,2.60
2019-04-26T09:16:13.482Z,3.03
2019-04-26T09:18:52.588Z,2.80
2019-04-26T09:21:19.328Z,3.20
2019-04-26T09:24:01.787Z,2.93
2019-04-26T09:26:42.600Z,3.00
2019-04-26T09:29:09.667Z,2.90
2019-04-26T09:31:50.527Z,3.70
2019-04-26T09:34:19.007Z,3.13
2019-04-26T09:36:45.331Z,3.83
2019-04-26T09:39:12.048Z,2.77
2019-04-26T09:41:39.030Z,2.90
2019-04-26T09:44:09.726Z,2.97
2019-04-26T09:46:44.452Z,2.50
2019-04-26T09:49:24.934Z,2.30
2019-04-26T09:51:51.799Z,1.93
2019-04-26T09:54:21.940Z,1.90
2019-04-26T09:56:47.971Z,2.40
2019-04-26T09:59:14.030Z,1.87
2019-04-26T10:01:41.337Z,3.23
2019-04-26T10:04:07.623Z,2.53
2019-04-26T10:06:34.459Z,2.03
2019-04-26T10:09:02.119Z,2.30
2019-04-26T10:11:30.320Z,1.60
2019-04-26T10:13:58.398Z,1.77
2019-04-26T10:16:42.099Z,1.53
2019-04-26T10:19:08.872Z,2.40
2019-04-26T10:21:35.488Z,1.33
2019-04-26T10:24:01.534Z,1.67
2019-04-26T10:26:28.034Z,1.20
2019-04-26T10:28:56.333Z,1.60
2019-04-26T10:31:22.976Z,2.30
2019-04-26T10:33:50.940Z,1.90
2019-04-26T10:36:31.964Z,2.00
2019-04-26T10:39:01.198Z,2.10
2019-04-26T10:41:31.690Z,2.03
2019-04-26T10:44:04.935Z,2.30
2019-04-26T10:46:31.188Z,2.07
2019-04-26T10:49:08.195Z,2.03
2019-04-26T10:51:28.125Z,2.73
2019-04-26T10:54:01.586Z,2.67
2019-04-26T10:56:45.975Z,2.80
2019-04-26T10:59:22.673Z,3.10
2019-04-26T11:01:50.740Z,2.83
2019-04-26T11:04:18.086Z,3.33
2019-04-26T11:06:44.509Z,3.27
2019-04-26T11:09:12.163Z,2.73
2019-04-26T11:11:38.284Z,2.90
2019-04-26T11:14:04.700Z,2.97
2019-04-26T11:16:37.211Z,3.90
2019-04-26T11:19:03.438Z,3.60
2019-04-26T11:21:29.773Z,2.33
2019-04-26T11:23:57.530Z,2.93
2019-04-26T11:26:23.551Z,3.37
2019-04-26T11:28:51.318Z,2.37
2019-04-26T11:31:17.494Z,2.87
2019-04-26T11:33:48.659Z,3.53
2019-04-26T11:36:14.408Z,3.30
2019-04-26T11:38:40.782Z,3.23
2019-04-26T11:41:07.273Z,3.07
2019-04-26T11:43:33.446Z,3.20
2019-04-26T11:46:04.597Z,3.10
2019-04-26T11:48:30.704Z,3.30
2019-04-26T11:50:56.998Z,3.83
2019-04-26T11:53:23.460Z,3.97
2019-04-26T11:55:49.528Z,4.03
2019-04-26T11:58:17.932Z,3.90
2019-04-26T12:00:45.583Z,3.53
2019-04-26T12:03:11.637Z,4.03
2019-04-26T12:05:39.739Z,3.50
2019-04-26T12:08:10.487Z,2.97
2019-04-26T12:10:40.252Z,3.10
2019-04-26T12:13:06.143Z,3.60
2019-04-26T12:15:32.433Z,2.90
2019-04-26T12:17:59.092Z,3.00
2019-04-26T12:20:29.611Z,2.80
2019-04-26T12:23:02.391Z,2.70
2019-04-26T12:25:31.008Z,3.33
2019-04-26T12:27:56.443Z,3.50
2019-04-26T12:30:26.479Z,3.60
2019-04-26T12:32:50.589Z,3.10
2019-04-26T12:35:17.380Z,4.27
2019-04-26T12:37:43.569Z,3.23
2019-04-26T12:40:11.248Z,3.20
2019-04-26T12:42:38.551Z,3.40
2019-04-26T12:45:23.190Z,3.20
2019-04-26T12:47:51.206Z,3.90
2019-04-26T12:50:17.386Z,4.23
2019-04-26T12:52:43.840Z,3.10
2019-04-26T12:55:13.722Z,3.50
2019-04-26T12:57:40.874Z,3.40
2019-04-26T13:00:06.251Z,3.77
2019-04-26T13:02:32.457Z,3.07
2019-04-26T13:04:58.623Z,2.87
2019-04-26T13:07:25.321Z,2.57
2019-04-26T13:10:00.980Z,2.53
2019-04-26T13:12:38.206Z,8.63
2019-04-26T13:15:31.731Z,3.03
2019-04-26T13:17:58.368Z,5.47
2019-04-26T13:20:28.518Z,3.70
2019-04-26T13:22:54.214Z,2.70
2019-04-26T13:25:26.580Z,2.33
2019-04-26T13:27:49.400Z,2.00
2019-04-26T13:30:15.683Z,2.70
2019-04-26T13:32:41.825Z,2.20
2019-04-26T13:35:11.312Z,2.37
2019-04-26T13:37:36.973Z,3.23
2019-04-26T13:40:05.592Z,3.10
2019-04-26T13:42:31.766Z,2.80
2019-04-26T13:45:02.577Z,3.43
2019-04-26T13:47:39.546Z,3.43
2019-04-26T13:50:10.803Z,3.57
2019-04-26T13:52:37.299Z,7.23
2019-04-26T13:55:04.919Z,9.93
2019-04-26T13:57:31.088Z,4.10
2019-04-26T13:59:57.143Z,7.10
2019-04-26T14:02:24.232Z,12.47
2019-04-26T14:04:50.334Z,4.07
2019-04-26T14:07:20.109Z,4.37
2019-04-26T14:09:44.835Z,4.63
2019-04-26T14:12:18.548Z,4.33
2019-04-26T14:14:39.879Z,5.23
2019-04-26T14:17:05.945Z,6.60
2019-04-26T14:19:32.503Z,6.30
2019-04-26T14:21:58.559Z,6.33
2019-04-26T14:24:38.337Z,7.07
2019-04-26T14:27:14.983Z,7.50
2019-04-26T14:29:46.182Z,7.23
2019-04-26T14:32:22.833Z,6.80
2019-04-26T14:34:47.935Z,6.80
2019-04-26T14:37:15.386Z,6.50
2019-04-26T14:39:50.283Z,5.80
2019-04-26T14:42:10.460Z,6.83
2019-04-26T14:44:43.259Z,5.80
2019-04-26T14:47:13.854Z,7.73
2019-04-26T14:49:39.075Z,7.40
2019-04-26T14:52:00.539Z,6.37
2019-04-26T14:54:26.643Z,6.10
2019-04-26T14:56:52.813Z,5.77
2019-04-26T14:59:22.098Z,5.60
2019-04-26T15:01:52.185Z,4.80
2019-04-26T15:04:33.005Z,4.17
2019-04-26T15:06:59.704Z,4.57
2019-04-26T15:09:32.923Z,4.17
2019-04-26T15:11:59.638Z,4.10
2019-04-26T15:14:23.221Z,5.00
2019-04-26T15:16:49.416Z,4.40
2019-04-26T15:19:15.523Z,3.47
2019-04-26T15:21:42.237Z,3.62
2019-04-26T15:24:08.539Z,3.60
2019-04-26T15:26:34.619Z,3.58
2019-04-26T15:29:02.538Z,5.10
2019-04-26T15:31:28.960Z,3.20
2019-04-26T15:33:55.100Z,3.17
2019-04-26T15:36:21.167Z,3.10
2019-04-26T15:38:48.635Z,2.63
2019-04-26T15:41:28.596Z,2.63
2019-04-26T15:43:56.908Z,2.20
2019-04-26T15:46:42.632Z,1.80
2019-04-26T15:49:12.527Z,1.57
2019-04-26T15:51:42.371Z,2.00
2019-04-26T15:54:08.706Z,2.13
2019-04-26T15:56:34.901Z,3.07
2019-04-26T15:59:02.565Z,3.23
2019-04-26T16:01:29.259Z,1.80
2019-04-26T16:03:55.323Z,1.63
2019-04-26T16:06:21.409Z,1.50
2019-04-26T16:08:49.447Z,1.40
2019-04-26T16:11:15.616Z,2.10
2019-04-26T16:13:45.183Z,1.43
2019-04-26T16:16:12.497Z,1.67
2019-04-26T16:18:38.413Z,1.60
2019-04-26T16:21:04.834Z,3.47
2019-04-26T16:23:39.372Z,5.03
2019-04-26T16:25:59.367Z,3.23
2019-04-26T16:28:27.357Z,5.50
2019-04-26T16:31:11.013Z,2.57
2019-04-26T16:33:36.987Z,1.70
2019-04-26T16:36:06.200Z,2.33
2019-04-26T16:38:33.945Z,4.47
2019-04-26T16:41:00.176Z,1.00
2019-04-26T16:43:36.391Z,1.20
2019-04-26T16:45:54.587Z,1.30
2019-04-26T16:48:22.195Z,1.47
2019-04-26T16:50:48.733Z,1.70
2019-04-26T16:53:36.255Z,1.30
2019-04-26T16:55:49.173Z,1.37
2019-04-26T16:58:12.625Z,1.47
2019-04-26T17:00:50.154Z,1.60
2019-04-26T17:03:07.964Z,1.40
2019-04-26T17:05:47.897Z,1.30
2019-04-26T17:08:05.020Z,2.00
2019-04-26T17:10:30.674Z,2.13
2019-04-26T17:12:56.827Z,8.70
2019-04-26T17:15:24.292Z,1.90
2019-04-26T17:17:52.551Z,1.60
2019-04-26T17:20:18.847Z,1.20
2019-04-26T17:22:56.951Z,1.47
2019-04-26T17:25:23.779Z,1.70
2019-04-26T17:27:47.115Z,1.60
2019-04-26T17:30:14.713Z,1.60
2019-04-26T17:32:42.181Z,2.27
2019-04-26T17:35:09.682Z,1.60
2019-04-26T17:37:35.879Z,1.33
2019-04-26T17:40:02.021Z,1.53
2019-04-26T17:42:29.788Z,2.00
2019-04-26T17:44:57.619Z,1.90
2019-04-26T17:47:28.348Z,2.60
2019-04-26T17:49:52.999Z,3.20
2019-04-26T17:52:20.407Z,3.60
2019-04-26T17:54:49.418Z,3.33
2019-04-26T17:57:14.881Z,3.37
2019-04-26T17:59:47.479Z,3.47
2019-04-26T18:02:25.586Z,3.20
2019-04-26T18:04:40.499Z,4.50
2019-04-26T18:07:22.369Z,8.97
2019-04-26T18:09:45.937Z,6.97
2019-04-26T18:12:03.453Z,5.13
2019-04-26T18:14:30.487Z,6.30
2019-04-26T18:17:01.442Z,5.73
2019-04-26T18:19:30.436Z,5.70
2019-04-26T18:22:03.789Z,6.27
2019-04-26T18:24:32.232Z,6.27
2019-04-26T18:26:59.418Z,6.40
2019-04-26T18:29:29.296Z,7.63
2019-04-26T18:31:54.399Z,7.43
2019-04-26T18:34:20.484Z,9.20
2019-04-26T18:36:47.326Z,9.00
2019-04-26T18:39:13.405Z,11.87
2019-04-26T18:41:39.572Z,11.93
2019-04-26T18:44:06.104Z,11.20
2019-04-26T18:46:35.791Z,12.80
2019-04-26T18:49:02.230Z,13.63
2019-04-26T18:51:28.475Z,14.97
2019-04-26T18:54:14.566Z,14.53
2019-04-26T18:56:41.769Z,16.27
2019-04-26T18:59:11.723Z,17.17
2019-04-26T19:01:41.034Z,13.23
2019-04-26T19:04:09.996Z,14.33
2019-04-26T19:06:38.056Z,14.80
2019-04-26T19:09:06.027Z,12.53
2019-04-26T19:11:34.206Z,12.97
2019-04-26T19:14:02.234Z,12.27
2019-04-26T19:16:31.624Z,11.63
2019-04-26T19:19:25.347Z,11.87
2019-04-26T19:22:00.880Z,11.90
2019-04-26T19:24:26.899Z,13.93
2019-04-26T19:26:52.959Z,11.73
2019-04-26T19:29:27.059Z,13.23
2019-04-26T19:31:47.103Z,15.50
2019-04-26T19:34:13.187Z,16.63
2019-04-26T19:36:39.359Z,16.00
2019-04-26T19:39:06.431Z,19.33
2019-04-26T19:41:32.503Z,18.43
2019-04-26T19:43:58.577Z,18.87
2019-04-26T19:46:44.328Z,19.90
2019-04-26T19:49:29.954Z,19.00
2019-04-26T19:52:07.962Z,18.93
2019-04-26T19:54:38.515Z,113.00
2019-04-26T19:57:18.972Z,21.50
2019-04-26T19:59:45.239Z,23.27
2019-04-26T20:02:12.795Z,24.70
2019-04-26T20:04:43.841Z,22.63
2019-04-26T20:07:09.995Z,26.87
2019-04-26T20:09:36.170Z,23.37
2019-04-26T20:12:02.726Z,25.40
2019-04-26T20:14:43.584Z,30.60
2019-04-26T20:17:01.783Z,27.60
2019-04-26T20:19:36.900Z,25.73
2019-04-26T20:21:56.531Z,25.00
2019-04-26T20:24:22.681Z,25.93
2019-04-26T20:26:49.160Z,25.83
2019-04-26T20:29:15.220Z,28.93
2019-04-26T20:31:58.287Z,27.53
2019-04-26T20:34:24.363Z,27.37
2019-04-26T20:36:52.155Z,25.70
2019-04-26T20:39:20.981Z,26.43
2019-04-26T20:41:47.106Z,29.03
2019-04-26T20:44:13.250Z,29.90
2019-04-26T20:46:39.891Z,34.47
2019-04-26T20:49:09.052Z,32.10
2019-04-26T20:51:33.988Z,27.67
2019-04-26T20:54:03.875Z,28.57
2019-04-26T20:56:31.703Z,28.37
2019-04-26T20:58:58.009Z,29.90
2019-04-26T21:01:24.197Z,29.27
2019-04-26T21:03:51.750Z,28.33
2019-04-26T21:06:29.250Z,27.53
2019-04-26T21:08:59.126Z,30.37
2019-04-26T21:11:23.110Z,29.70
2019-04-26T21:13:49.235Z,29.07
2019-04-26T21:16:15.735Z,31.37
2019-04-26T21:18:44.281Z,29.33
2019-04-26T21:21:11.805Z,32.83
2019-04-26T21:23:40.040Z,32.97
2019-04-26T21:26:16.478Z,33.73
2019-04-26T21:28:43.908Z,33.03
2019-04-26T21:31:27.348Z,28.70
2019-04-26T21:33:58.462Z,32.23
2019-04-26T21:36:41.112Z,27.93
2019-04-26T21:39:23.599Z,30.07
2019-04-26T21:41:53.172Z,30.80
2019-04-26T21:44:19.355Z,31.03
2019-04-26T21:46:49.540Z,29.43
2019-04-26T21:49:20.390Z,27.83
2019-04-26T21:51:44.660Z,29.77
2019-04-26T21:54:09.811Z,34.47
2019-04-26T21:56:36.023Z,29.83
2019-04-26T21:59:03.620Z,28.90
2019-04-26T22:01:30.132Z,23.07
2019-04-26T22:03:58.426Z,25.43
2019-04-26T22:06:27.679Z,22.57
2019-04-26T22:09:23.871Z,25.70
2019-04-26T22:11:53.929Z,25.00
2019-04-26T22:14:25.924Z,25.30
2019-04-26T22:17:10.416Z,26.20
2019-04-26T22:19:56.056Z,26.53
2019-04-26T22:22:24.799Z,28.87
2019-04-26T22:24:53.185Z,27.47
2019-04-26T22:27:25.232Z,26.33
2019-04-26T22:29:54.535Z,28.60
2019-04-26T22:32:20.379Z,26.80
2019-04-26T22:34:46.553Z,28.27
2019-04-26T22:37:12.909Z,29.03
2019-04-26T22:39:41.266Z,28.90
2019-04-26T22:42:09.940Z,30.23
2019-04-26T22:44:46.731Z,32.20
2019-04-26T22:47:15.679Z,28.03
2019-04-26T22:49:44.927Z,31.63
2019-04-26T22:52:11.091Z,26.13
2019-04-26T22:54:42.841Z,31.17
2019-04-26T22:57:08.187Z,29.83
2019-04-26T22:59:38.020Z,31.70
2019-04-26T23:02:03.575Z,28.53
2019-04-26T23:04:29.717Z,28.37
2019-04-26T23:06:56.550Z,30.40
2019-04-26T23:09:23.380Z,31.83
2019-04-26T23:11:54.048Z,30.30
2019-04-26T23:14:28.048Z,33.67
2019-04-26T23:17:05.646Z,31.13
2019-04-26T23:19:35.136Z,33.83
2019-04-26T23:22:01.282Z,36.57
2019-04-26T23:24:27.559Z,37.33
2019-04-26T23:26:54.094Z,37.00
2019-04-26T23:29:20.290Z,34.20
2019-04-26T23:31:46.588Z,34.43
2019-04-26T23:34:14.280Z,37.17
2019-04-26T23:36:40.558Z,35.83
2019-04-26T23:39:07.574Z,35.67
2019-04-26T23:41:37.572Z,37.77
2019-04-26T23:44:06.654Z,33.87
2019-04-26T23:46:33.023Z,34.93
2019-04-26T23:48:59.375Z,39.60
2019-04-26T23:51:26.253Z,32.17
2019-04-26T23:53:55.032Z,34.60
2019-04-26T23:56:23.548Z,38.37
2019-04-26T23:58:53.571Z,34.83
